• Join FlightAware (Why Join?)
  • Login
  • US Flag 
10:01PM EST


 

Airport Tracker/Info


-or-


 

Live Flight TrackerFlight Track Log ✈ GJS3649 ✈ 19-Oct-2013 ✈ KORD - KSYR

Flight Track Log - Related Links

Times and Time Zones

All times are in EDT time to prevent confusion due to time zone crossing. See the GJS3649 flight status page for this flight to view local times or setup timezone preferences in your user account.

Time Position Orientation Groundspeed Altitude Reporting Facility
EDT Latitude Longitude Course Direction KTS MPH feet Rate Location/Type
09:09PM 42.0333 -87.9333 90° East 199 229 2,500  Level Chicago TRACON
09:10PM 42.0833 -87.8833 37° Northeast 254 292 4,700 2,460 Climbing Chicago TRACON
09:13PM 42.1358 -87.6694 72° East 310 357 10,300 2,220 Climbing Chicago Center
09:14PM 42.1642 -87.5531 72° East 327 376 11,700 1,560 Climbing Chicago Center
09:15PM 42.1140 -86.9959 90° East  Level Estimated
09:15PM 42.1950 -87.4197 73° East 367 422 13,600  Level Chicago Center
09:16PM 42.2294 -87.2753 72° East 402 463 15,200 1,800 Climbing Chicago Center
09:17PM 42.2717 -87.0936 73° East 423 487 17,300 1,920 Climbing Chicago Center
09:18PM 42.2836 -86.9264 84° East 451 519 19,200 1,680 Climbing Chicago Center
09:19PM 42.2917 -86.7575 81° East 453 521 20,800 1,500 Climbing Chicago Center
09:20PM 42.2862 -86.6414 81° East  Level FlightAware Approximate
09:20PM 42.2989 -86.5761 87° East 469 540 22,300  Level Chicago Center
09:21PM 42.3044 -86.4189 87° East 478 550 23,500 1,200 Climbing Chicago Center
09:22PM 42.3114 -86.2344 87° East 491 565 24,800 1,320 Climbing Chicago Center
09:23PM 42.3144 -86.0081 89° East 504 580 26,300 1,260 Climbing Chicago Center
09:24PM 42.3128 -85.8144 91° East 517 595 27,400 1,020 Climbing Chicago Center
09:25PM 42.3100 -85.6194 91° East 523 602 28,400 960 Climbing Chicago Center
09:26PM 42.3075 -85.4203 91° East 533 613 29,400 960 Climbing Chicago Center
09:27PM 42.3047 -85.2186 91° East 537 618 30,400 960 Climbing Chicago Center
09:28PM 42.3014 -85.0194 91° East 537 618 31,400 960 Climbing Chicago Center
09:29PM 42.2967 -84.8206 92° East 534 615 32,400 1,020 Climbing Chicago Center
09:30PM 42.2892 -84.5800 92° East 536 617 33,500 960 Climbing Chicago Center
09:31PM 42.2956 -84.3778 87° East 541 623 34,400 780 Climbing Chicago Center
09:32PM 42.3019 -84.2669 86° East 536 617 34,900 780 Climbing Cleveland Center
09:33PM 42.3131 -84.0661 86° East 536 617 35,800 960 Climbing Cleveland Center
09:34PM 42.3264 -83.8311 86° East 526 605 36,900 540 Climbing Cleveland Center
09:35PM 42.3367 -83.6317 86° East 528 608 37,000  Climbing Cleveland Center
09:36PM 42.3461 -83.4439 86° East 541 623 37,000  Level Cleveland Center
09:37PM 42.3581 -83.2344 86° East 550 633 37,000  Level Cleveland Center
09:38PM 42.3664 -83.0414 87° East 552 635 37,000  Level Cleveland Center
09:39PM 42.3764 -82.8328 86° East 555 639 37,000  Level Cleveland Center
09:40PM 42.3875 -82.5831 86° East 556 640 37,000  Level Cleveland Center
09:41PM 42.3972 -82.3758 86° East 555 639 37,000  Level Cleveland Center
09:42PM 42.4058 -82.1689 87° East 554 638 37,000  Level Cleveland Center
09:43PM 42.4133 -81.9742 87° East 553 636 37,000  Level Cleveland Center
09:44PM 42.4219 -81.7628 87° East 555 639 37,000  Level Cleveland Center
09:45PM 42.4303 -81.5528 87° East 554 638 37,000  Level Cleveland Center
09:46PM 42.4372 -81.3411 87° East 557 641 37,000  Level Cleveland Center
09:47PM 42.4447 -81.1286 87° East 559 643 37,000  Level Cleveland Center
09:48PM 42.4508 -80.9186 88° East 556 640 37,000  Level Cleveland Center
09:49PM 42.4575 -80.7081 87° East 553 636 37,000  Level Cleveland Center
09:50PM 42.4631 -80.4994 88° East 551 634 37,000  Level Cleveland Center
09:51PM 42.4692 -80.2889 88° East 555 639 37,000  Level Cleveland Center
09:52PM 42.4739 -80.0767 88° East 557 641 37,000  Level Cleveland Center
09:53PM 42.4803 -79.8561 88° East 554 638 37,000  Level Cleveland Center
09:54PM 42.4839 -79.6481 89° East 556 640 37,000  Level Cleveland Center
09:55PM 42.4881 -79.4392 88° East 556 640 37,000 -60 Level Cleveland Center
09:56PM 42.5006 -79.2311 85° East 556 640 36,900 -600 Descending Cleveland Center
09:57PM 42.5431 -79.0247 74° East 568 654 35,900 -1,080 Descending Cleveland Center
09:58PM 42.5856 -78.8192 74° East 569 655 34,800 -1,560 Descending Cleveland Center
09:59PM 42.6281 -78.6158 74° East 562 647 32,800 -2,280 Descending Cleveland Center
10:00PM 42.6694 -78.4108 75° East 559 643 30,300 -2,460 Descending Cleveland Center
10:01PM 42.7106 -78.2089 74° East 557 641 27,800 -2,460 Descending Cleveland Center
10:02PM 42.7492 -78.0117 75° East 536 617 25,300 -2,520 Descending Cleveland Center
10:03PM 42.7864 -77.8208 75° East 517 595 22,800 -2,340 Descending Cleveland Center
10:04PM 42.8231 -77.6425 74° East 482 555 20,600 -2,160 Descending Cleveland Center
10:05PM 42.8547 -77.4750 75° East 456 525 18,500 -2,100 Descending Cleveland Center
10:06PM 42.8858 -77.3158 75° East 435 501 16,400 -1,920 Descending Cleveland Center
10:07PM 42.9153 -77.1617 75° East 423 487 14,700 -1,680 Descending Cleveland Center
10:08PM 42.9433 -77.0119 76° East 411 473 13,000 -1,680 Descending Cleveland Center
10:09PM 42.9758 -76.8422 75° East 390 449 11,400 -1,380 Descending Cleveland Center
10:10PM 42.9819 -76.7103 86° East 356 410 10,300 -1,140 Descending Cleveland Center
10:11PM 42.9800 -76.5881 91° East 333 383 9,200 -1,200 Descending Cleveland Center
10:12PM 42.9786 -76.4683 91° East 324 373 7,900 -1,320 Descending Cleveland Center
10:13PM 42.9781 -76.3578 90° East 310 357 6,600 -1,260 Descending Cleveland Center
10:14PM 42.9906 -76.2572 80° East 287 330 5,400 -1,140 Descending Cleveland Center
10:15PM 42.9986 -76.1608 83° East 271 312 4,400 -960 Descending Cleveland Center
10:16PM 43.0136 -76.0664 78° East 262 302 3,500 -840 Descending Cleveland Center
10:17PM 43.0511 -75.9925 55° Northeast 245 282 2,800 -540 Descending Cleveland Center
10:18PM 43.1031 -75.9650 21° North 224 258 2,500 -540 Descending Cleveland Center
10:19PM 43.1108 -76.0269 280° West 118 136 1,700 -780 Descending Boston Center
10:20PM 43.1094 -76.0750 268° West 122 140 900 -840 Descending Boston Center